Time;durP1;ratioP1;P1;durP2;ratioP2;P2;SDS_P1;SDS_P2;PMS_P1;PMS_P2;Temp;Humidity;BMP_temperature;BMP_pressure;BME280_temperature;BME280_humidity;BME280_pressure;Samples;Min_cycle;Max_cycle;Signal;HPM_P1;HPM_P2
2021/04/08 00:01:57;;;;;;;5.55;4.15;;;2.40;1.00;;;;;;5058887;28;20036;-80
2021/04/08 00:04:32;;;;;;;5.50;4.25;;;2.40;1.00;;;;;;5071495;28;20024;-82
2021/04/08 00:07:07;;;;;;;8.68;4.10;;;2.30;1.00;;;;;;5076625;28;20044;-79
2021/04/08 00:09:38;;;;;;;6.82;3.92;;;2.40;1.00;;;;;;5076372;28;20025;-80
2021/04/08 00:12:16;;;;;;;5.70;3.97;;;2.40;1.00;;;;;;5074400;28;20040;-80
2021/04/08 00:14:45;;;;;;;5.15;3.70;;;2.40;1.00;;;;;;5078155;28;20036;-79
2021/04/08 00:17:34;;;;;;;6.70;4.55;;;2.40;1.00;;;;;;5073402;28;20074;-81
2021/04/08 00:20:19;;;;;;;6.75;4.32;;;2.40;1.00;;;;;;5073844;28;20025;-80
2021/04/08 00:22:51;;;;;;;5.80;3.88;;;2.50;1.00;;;;;;5076609;28;20066;-81
2021/04/08 00:25:23;;;;;;;4.20;3.72;;;2.50;1.00;;;;;;5086750;28;20472;-79
2021/04/08 00:28:08;;;;;;;4.50;3.60;;;2.40;1.00;;;;;;5078065;28;20020;-79
2021/04/08 00:30:43;;;;;;;7.47;3.53;;;2.40;99.90;;;;;;5072409;28;20028;-79
2021/04/08 00:33:18;;;;;;;8.85;3.38;;;2.50;99.90;;;;;;5085175;28;20025;-80
2021/04/08 00:35:52;;;;;;;3.75;3.15;;;2.50;99.90;;;;;;5079607;28;20032;-81
2021/04/08 00:38:20;;;;;;;7.45;3.50;;;2.50;99.90;;;;;;5057569;28;20048;-79
2021/04/08 00:40:55;;;;;;;5.28;3.30;;;2.50;99.90;;;;;;5069329;28;20032;-80
2021/04/08 00:43:33;;;;;;;4.50;3.95;;;2.50;99.90;;;;;;5074207;28;20017;-80
2021/04/08 00:46:02;;;;;;;5.68;5.07;;;2.50;99.90;;;;;;5084525;28;20023;-80
2021/04/08 00:48:38;;;;;;;4.18;3.47;;;2.60;99.90;;;;;;5074307;28;20029;-80
2021/04/08 00:51:13;;;;;;;6.85;4.22;;;2.50;99.90;;;;;;5075568;28;20013;-81
2021/04/08 00:53:50;;;;;;;4.43;4.00;;;2.60;99.90;;;;;;5076682;28;20029;-81
2021/04/08 00:56:28;;;;;;;6.15;4.00;;;2.60;99.90;;;;;;5081988;28;20036;-81
2021/04/08 00:59:07;;;;;;;7.32;3.78;;;2.60;99.90;;;;;;5086150;28;20022;-80
2021/04/08 01:01:46;;;;;;;7.03;4.57;;;2.60;99.90;;;;;;5077260;28;20020;-80
2021/04/08 01:04:12;;;;;;;3.95;3.55;;;2.60;99.90;;;;;;5077272;28;20025;-80
2021/04/08 01:06:44;;;;;;;4.72;3.47;;;2.60;99.90;;;;;;5086971;28;20016;-82
2021/04/08 01:09:12;;;;;;;5.05;3.85;;;2.60;99.90;;;;;;5086990;28;20044;-81
2021/04/08 01:11:59;;;;;;;4.57;3.58;;;2.70;99.90;;;;;;5078531;28;20012;-81
2021/04/08 01:14:36;;;;;;;6.55;3.55;;;2.70;99.90;;;;;;5080107;28;20033;-82
2021/04/08 01:17:30;;;;;;;8.18;3.58;;;2.70;99.90;;;;;;5090654;28;20029;-81
2021/04/08 01:20:30;;;;;;;3.90;3.17;;;2.80;99.90;;;;;;5081338;28;20036;-79
2021/04/08 01:23:14;;;;;;;4.50;3.20;;;2.80;99.90;;;;;;5093120;28;20036;-81
2021/04/08 01:26:30;;;;;;;5.57;3.08;;;2.80;99.90;;;;;;5089800;28;20013;-81
2021/04/08 01:29:20;;;;;;;4.93;3.45;;;2.80;99.90;;;;;;5086219;28;20078;-81
2021/04/08 01:31:51;;;;;;;5.93;3.33;;;2.80;99.90;;;;;;5085677;28;20092;-80
2021/04/08 01:34:23;;;;;;;7.00;3.83;;;2.90;99.90;;;;;;5091372;28;20017;-80
2021/04/08 01:36:58;;;;;;;5.95;3.67;;;2.90;99.90;;;;;;5090760;28;20087;-80
2021/04/08 01:39:27;;;;;;;4.28;3.88;;;2.90;99.90;;;;;;5079427;28;20096;-81
2021/04/08 01:42:01;;;;;;;7.57;4.00;;;2.90;99.90;;;;;;5078458;28;20088;-81
2021/04/08 01:44:33;;;;;;;5.30;3.85;;;2.90;99.90;;;;;;5079357;28;20032;-80
2021/04/08 01:47:13;;;;;;;6.82;4.15;;;2.90;99.90;;;;;;5082118;28;20089;-80
2021/04/08 01:49:43;;;;;;;5.80;3.00;;;3.00;99.90;;;;;;5071900;28;20489;-79
2021/04/08 01:52:21;;;;;;;3.10;2.77;;;3.00;99.90;;;;;;5073675;28;20033;-80
2021/04/08 01:54:55;;;;;;;4.38;2.90;;;3.00;99.90;;;;;;5081021;28;20271;-79
2021/04/08 01:57:29;;;;;;;3.20;2.30;;;3.10;99.90;;;;;;5080642;28;20021;-78
2021/04/08 02:00:00;;;;;;;5.13;2.47;;;3.10;99.90;;;;;;5085857;28;20447;-79
2021/04/08 02:02:32;;;;;;;3.45;2.10;;;3.00;99.90;;;;;;5092742;28;20083;-78
2021/04/08 02:05:01;;;;;;;4.70;2.67;;;3.00;99.90;;;;;;5090430;28;20078;-79
2021/04/08 02:07:36;;;;;;;6.38;2.80;;;2.90;99.90;;;;;;5089565;28;20032;-80
2021/04/08 02:10:02;;;;;;;4.40;2.75;;;2.90;99.90;;;;;;5083292;28;20024;-80
2021/04/08 02:12:37;;;;;;;6.40;3.15;;;2.90;99.90;;;;;;5082754;28;20033;-80
2021/04/08 02:15:08;;;;;;;3.13;2.83;;;2.90;99.90;;;;;;5076986;28;20021;-80
2021/04/08 02:17:37;;;;;;;5.68;2.97;;;2.90;99.90;;;;;;5078310;28;20064;-80
2021/04/08 02:20:20;;;;;;;2.85;2.55;;;2.90;99.90;;;;;;5079864;28;20024;-80
2021/04/08 02:22:49;;;;;;;3.78;3.00;;;3.00;99.90;;;;;;5094500;28;20028;-79
2021/04/08 02:25:22;;;;;;;10.52;3.53;;;3.00;99.90;;;;;;5088499;28;20024;-79
2021/04/08 02:27:51;;;;;;;4.82;3.45;;;3.00;99.90;;;;;;5098027;28;20027;-80
2021/04/08 02:30:23;;;;;;;5.13;2.78;;;3.00;99.90;;;;;;5087737;28;20068;-81
2021/04/08 02:33:01;;;;;;;5.28;3.03;;;3.00;99.90;;;;;;5077765;28;20032;-80
2021/04/08 02:35:30;;;;;;;3.25;2.60;;;3.00;99.90;;;;;;5086933;28;20031;-79
2021/04/08 02:38:07;;;;;;;4.43;2.70;;;3.00;99.90;;;;;;5090148;28;20039;-81
2021/04/08 02:40:33;;;;;;;8.00;2.75;;;2.90;99.90;;;;;;5100867;22;20048;-80
2021/04/08 02:43:08;;;;;;;4.40;2.85;;;2.90;99.90;;;;;;5077814;28;20081;-81
2021/04/08 02:45:48;;;;;;;3.65;2.75;;;2.90;99.90;;;;;;5070014;28;20025;-79
2021/04/08 02:48:24;;;;;;;7.53;2.85;;;2.90;99.90;;;;;;5078270;28;20085;-80
2021/04/08 02:50:57;;;;;;;4.32;3.10;;;2.90;99.90;;;;;;5072650;28;20037;-80
2021/04/08 02:53:46;;;;;;;5.32;3.75;;;2.90;99.90;;;;;;5080396;23;20040;-75
2021/04/08 02:56:16;;;;;;;6.88;3.00;;;2.90;99.90;;;;;;5051629;28;20029;-75
2021/04/08 02:58:43;;;;;;;3.95;2.95;;;3.00;99.90;;;;;;5053927;28;20485;-75
2021/04/08 03:01:12;;;;;;;4.03;2.67;;;3.00;99.90;;;;;;5046724;28;20109;-75
2021/04/08 03:03:59;;;;;;;6.82;2.78;;;3.00;99.90;;;;;;5042360;28;20508;-75
2021/04/08 03:06:26;;;;;;;5.45;2.50;;;3.00;99.90;;;;;;5033264;28;20428;-75
2021/04/08 03:08:55;;;;;;;7.05;2.65;;;3.00;99.90;;;;;;5034469;28;20040;-75
2021/04/08 03:11:28;;;;;;;5.45;2.63;;;3.00;99.90;;;;;;5035133;28;20069;-74
2021/04/08 03:13:58;;;;;;;4.00;2.53;;;3.00;99.90;;;;;;5042614;28;20026;-74
2021/04/08 03:16:28;;;;;;;3.85;2.72;;;3.00;99.90;;;;;;5049324;28;20032;-75
2021/04/08 03:18:57;;;;;;;2.55;2.35;;;3.10;99.90;;;;;;5041326;28;20026;-74
2021/04/08 03:21:27;;;;;;;4.15;2.60;;;3.00;99.90;;;;;;5031658;28;20469;-75
2021/04/08 03:23:55;;;;;;;6.40;2.65;;;3.00;99.90;;;;;;5026281;28;20033;-74
2021/04/08 03:26:22;;;;;;;4.15;2.75;;;3.00;99.90;;;;;;5033615;28;20408;-75
2021/04/08 03:28:49;;;;;;;3.25;2.58;;;3.00;99.90;;;;;;5027943;28;20018;-75
2021/04/08 03:31:15;;;;;;;4.45;3.00;;;3.00;99.90;;;;;;5013814;28;20113;-75
2021/04/08 03:33:43;;;;;;;6.88;2.50;;;3.00;99.90;;;;;;5013484;28;20029;-75
2021/04/08 03:36:09;;;;;;;4.22;2.83;;;2.90;99.90;;;;;;5013204;28;20022;-75
2021/04/08 03:38:35;;;;;;;6.22;3.13;;;2.90;99.90;;;;;;5014075;28;20481;-75
2021/04/08 03:41:01;;;;;;;3.45;2.90;;;3.00;99.90;;;;;;5027101;28;20051;-75
2021/04/08 03:43:28;;;;;;;4.45;3.08;;;3.00;99.90;;;;;;5032998;28;20106;-75
2021/04/08 03:46:00;;;;;;;3.53;2.55;;;2.90;99.90;;;;;;5024833;28;20033;-75
2021/04/08 03:48:27;;;;;;;4.25;3.13;;;2.90;99.90;;;;;;5042805;28;20509;-76
2021/04/08 03:50:53;;;;;;;4.32;3.40;;;2.90;99.90;;;;;;5044263;28;20030;-74
2021/04/08 03:53:20;;;;;;;5.55;3.50;;;2.90;99.90;;;;;;5053051;28;20060;-75
2021/04/08 03:55:46;;;;;;;6.03;3.63;;;3.00;99.90;;;;;;5069094;28;20026;-74
2021/04/08 03:58:12;;;;;;;5.45;2.47;;;3.00;99.90;;;;;;5061083;28;20029;-74
2021/04/08 04:00:39;;;;;;;4.78;2.97;;;3.00;99.90;;;;;;5044937;28;20061;-75
2021/04/08 04:03:11;;;;;;;7.03;3.88;;;3.00;99.90;;;;;;5030699;28;20033;-75
2021/04/08 04:05:38;;;;;;;3.72;3.42;;;3.00;99.90;;;;;;5029755;28;20028;-75
2021/04/08 04:08:05;;;;;;;6.28;3.55;;;2.90;99.90;;;;;;5049616;28;20042;-74
2021/04/08 04:10:35;;;;;;;4.10;3.50;;;2.90;99.90;;;;;;5046838;28;20036;-76
2021/04/08 04:13:01;;;;;;;6.55;3.30;;;2.90;99.90;;;;;;5039456;28;20025;-74
2021/04/08 04:15:27;;;;;;;6.88;4.00;;;2.90;99.90;;;;;;5046466;28;20025;-75
2021/04/08 04:17:53;;;;;;;6.40;3.67;;;2.90;99.90;;;;;;5041685;28;20025;-75
2021/04/08 04:20:20;;;;;;;4.50;3.90;;;2.90;99.90;;;;;;5048019;28;20014;-76
2021/04/08 04:22:45;;;;;;;3.92;3.55;;;2.90;99.90;;;;;;5060831;28;20013;-76
2021/04/08 04:25:12;;;;;;;7.82;4.40;;;2.90;99.90;;;;;;5056918;28;20033;-76
2021/04/08 04:27:38;;;;;;;6.93;3.83;;;2.90;99.90;;;;;;5055737;28;20029;-76
2021/04/08 04:30:09;;;;;;;5.30;3.60;;;2.90;99.90;;;;;;5036047;28;20175;-75
2021/04/08 04:32:35;;;;;;;3.72;3.38;;;2.80;99.90;;;;;;5034511;28;20035;-76
2021/04/08 04:35:01;;;;;;;4.43;3.20;;;2.90;99.90;;;;;;5037682;28;20485;-75
2021/04/08 04:37:26;;;;;;;5.88;3.35;;;2.90;99.90;;;;;;5032182;28;20044;-76
2021/04/08 04:39:52;;;;;;;5.28;3.13;;;2.90;99.90;;;;;;5032735;28;20037;-75
2021/04/08 04:42:18;;;;;;;4.90;2.90;;;2.90;99.90;;;;;;5032835;28;20030;-75
2021/04/08 04:44:43;;;;;;;4.15;2.58;;;2.80;99.90;;;;;;5034853;28;20034;-76
2021/04/08 04:47:09;;;;;;;4.47;2.55;;;2.80;99.90;;;;;;5026116;28;20053;-76
2021/04/08 04:49:35;;;;;;;3.30;3.00;;;2.80;99.90;;;;;;5032962;28;20036;-76
2021/04/08 04:52:00;;;;;;;5.53;2.58;;;2.80;99.90;;;;;;5028468;28;20041;-75
2021/04/08 04:54:26;;;;;;;9.18;3.28;;;2.80;99.90;;;;;;5032137;28;20030;-75
2021/04/08 04:56:52;;;;;;;7.47;2.90;;;2.80;99.90;;;;;;5019752;28;20033;-74
2021/04/08 04:59:18;;;;;;;6.60;2.63;;;2.80;99.90;;;;;;5037308;28;20071;-76
2021/04/08 05:01:43;;;;;;;4.72;2.83;;;2.80;99.90;;;;;;5038071;28;20097;-75
2021/04/08 05:04:09;;;;;;;4.78;3.05;;;2.90;99.90;;;;;;5040471;28;20052;-75
2021/04/08 05:06:34;;;;;;;5.93;3.28;;;2.80;99.90;;;;;;5039088;28;20108;-75
2021/04/08 05:09:00;;;;;;;9.65;4.07;;;2.90;99.90;;;;;;5045988;28;20032;-75
2021/04/08 05:11:27;;;;;;;7.20;2.80;;;2.90;99.90;;;;;;5038198;28;20076;-75
2021/04/08 05:13:53;;;;;;;5.10;2.80;;;2.90;99.90;;;;;;5053838;28;20029;-74
2021/04/08 05:16:18;;;;;;;6.85;2.90;;;3.00;99.90;;;;;;5042287;28;20120;-75
2021/04/08 05:18:44;;;;;;;2.70;2.40;;;3.00;99.90;;;;;;5025270;28;20473;-76
2021/04/08 05:21:10;;;;;;;5.47;2.63;;;3.10;99.90;;;;;;5020055;28;20026;-76
2021/04/08 05:23:36;;;;;;;5.70;3.33;;;3.10;99.90;;;;;;5035478;28;20048;-76
2021/04/08 05:26:02;;;;;;;7.82;2.88;;;3.20;99.90;;;;;;5051010;28;20063;-76
2021/04/08 05:28:28;;;;;;;8.02;3.50;;;3.20;99.90;;;;;;5035792;28;20471;-75
2021/04/08 05:30:53;;;;;;;3.35;3.00;;;3.20;99.90;;;;;;5035292;28;20136;-75
2021/04/08 05:33:19;;;;;;;5.97;2.83;;;3.30;99.90;;;;;;5034245;28;20053;-75
2021/04/08 05:35:44;;;;;;;4.35;3.47;;;3.30;99.90;;;;;;5016277;28;20026;-76
2021/04/08 05:38:10;;;;;;;3.95;3.15;;;3.30;99.90;;;;;;5028060;28;20052;-75
2021/04/08 05:40:35;;;;;;;5.57;3.25;;;3.40;99.90;;;;;;5035490;28;20017;-76
2021/04/08 05:43:01;;;;;;;4.28;3.03;;;3.40;99.90;;;;;;5045974;28;20040;-75
2021/04/08 05:45:27;;;;;;;5.13;3.65;;;3.40;99.90;;;;;;5040074;28;20103;-75
2021/04/08 05:47:54;;;;;;;5.38;3.50;;;3.30;70.90;;;;;;5036613;28;20021;-76
2021/04/08 05:50:20;;;;;;;4.18;3.63;;;3.20;99.90;;;;;;5027922;28;20034;-75
2021/04/08 05:52:45;;;;;;;4.13;3.60;;;3.30;94.40;;;;;;5036426;28;20026;-76
2021/04/08 05:55:11;;;;;;;6.88;3.95;;;3.50;50.80;;;;;;5035024;28;20465;-76
2021/04/08 05:57:37;;;;;;;6.57;4.47;;;3.50;57.50;;;;;;5025787;28;20022;-75
2021/04/08 06:00:09;;;;;;;7.85;3.78;;;3.60;53.60;;;;;;5035427;28;20425;-77
2021/04/08 06:02:35;;;;;;;8.02;3.83;;;3.50;1.00;;;;;;5028384;28;20065;-75
2021/04/08 06:05:01;;;;;;;5.68;3.70;;;3.60;1.00;;;;;;5046508;28;20076;-76
2021/04/08 06:07:27;;;;;;;7.32;3.67;;;3.70;3.30;;;;;;5038557;28;20029;-76
2021/04/08 06:09:52;;;;;;;9.77;3.38;;;3.70;1.00;;;;;;5042167;28;20037;-75
2021/04/08 06:12:19;;;;;;;4.20;3.40;;;3.80;1.00;;;;;;5034065;28;20025;-75
2021/04/08 06:14:46;;;;;;;4.15;3.00;;;3.90;1.00;;;;;;5043965;28;20025;-76
2021/04/08 06:17:12;;;;;;;3.40;3.10;;;3.90;1.00;;;;;;5037640;28;20021;-74
2021/04/08 06:19:37;;;;;;;4.82;3.03;;;4.00;1.00;;;;;;5034777;28;20029;-75
2021/04/08 06:22:03;;;;;;;6.13;3.20;;;4.10;1.00;;;;;;5026980;28;20183;-75
2021/04/08 06:24:29;;;;;;;12.23;3.60;;;4.30;1.00;;;;;;5024073;28;20037;-76
2021/04/08 06:26:56;;;;;;;5.45;3.15;;;4.40;1.00;;;;;;5034394;28;20104;-76
2021/04/08 06:29:21;;;;;;;9.00;2.92;;;4.40;1.00;;;;;;5034646;28;20025;-76
2021/04/08 06:31:47;;;;;;;4.70;2.53;;;4.50;99.90;;;;;;5038980;28;20079;-75
2021/04/08 06:34:13;;;;;;;6.70;3.90;;;4.50;99.90;;;;;;5034130;28;20033;-75
2021/04/08 06:36:39;;;;;;;11.13;3.17;;;4.70;99.90;;;;;;5034577;28;20273;-75
2021/04/08 06:39:05;;;;;;;5.82;2.70;;;4.60;99.90;;;;;;5034811;28;20045;-75
2021/04/08 06:41:30;;;;;;;3.15;2.83;;;4.60;99.90;;;;;;5034092;28;20049;-75
2021/04/08 06:43:59;;;;;;;5.57;3.38;;;4.70;99.90;;;;;;5035009;28;20036;-75
2021/04/08 06:46:29;;;;;;;6.40;3.33;;;4.80;99.90;;;;;;5034119;28;20051;-74
2021/04/08 06:49:01;;;;;;;5.07;2.90;;;4.90;14.70;;;;;;5042115;28;20031;-76
2021/04/08 06:51:31;;;;;;;4.32;3.03;;;4.90;19.60;;;;;;5034205;28;20485;-76
2021/04/08 06:54:00;;;;;;;3.75;2.80;;;5.00;1.00;;;;;;5049278;28;20037;-76
2021/04/08 06:56:30;;;;;;;7.32;3.05;;;4.90;99.90;;;;;;5034224;28;20022;-75
2021/04/08 06:58:56;;;;;;;4.72;3.20;;;4.90;99.90;;;;;;5057293;28;20029;-76
2021/04/08 07:01:22;;;;;;;5.50;4.28;;;5.00;99.90;;;;;;5035970;28;20416;-76
2021/04/08 07:03:49;;;;;;;8.65;4.05;;;5.00;99.90;;;;;;5034008;28;20045;-76
2021/04/08 07:06:15;;;;;;;5.30;3.50;;;5.10;99.90;;;;;;5035656;28;20051;-76
2021/04/08 07:08:40;;;;;;;5.10;3.90;;;5.10;99.90;;;;;;5044851;28;20041;-75
2021/04/08 07:11:06;;;;;;;6.35;3.72;;;5.20;99.90;;;;;;5038732;28;20025;-74
2021/04/08 07:13:33;;;;;;;6.18;4.18;;;5.40;99.90;;;;;;5060319;28;20055;-73
2021/04/08 07:16:00;;;;;;;4.18;3.72;;;5.50;99.90;;;;;;5056276;28;20075;-74
2021/04/08 07:18:27;;;;;;;5.68;4.07;;;5.60;99.90;;;;;;5040734;28;20032;-73
2021/04/08 07:20:54;;;;;;;4.65;3.90;;;5.60;99.90;;;;;;5042282;28;20089;-75
2021/04/08 07:23:19;;;;;;;4.68;3.55;;;5.70;99.90;;;;;;5047000;28;20033;-73
2021/04/08 07:26:05;;;;;;;5.90;4.22;;;5.70;1.00;;;;;;5041285;28;20057;-75
2021/04/08 07:28:42;;;;;;;9.00;4.00;;;5.70;99.90;;;;;;5037067;28;20223;-74
2021/04/08 07:31:27;;;;;;;6.18;3.63;;;5.80;99.90;;;;;;5036217;28;20033;-74
2021/04/08 07:33:56;;;;;;;5.40;3.63;;;6.20;26.70;;;;;;5042485;28;20110;-74
2021/04/08 07:36:33;;;;;;;6.88;4.05;;;6.40;1.00;;;;;;5032679;28;20546;-74
2021/04/08 07:39:01;;;;;;;6.88;4.25;;;6.70;99.90;;;;;;5036076;28;20033;-75
2021/04/08 07:41:29;;;;;;;4.93;4.03;;;6.40;1.00;;;;;;5032938;28;20513;-74
2021/04/08 07:43:57;;;;;;;3.63;3.30;;;6.50;1.00;;;;;;5036108;28;20377;-75
2021/04/08 07:46:39;;;;;;;4.57;3.70;;;6.50;1.00;;;;;;5049412;28;20025;-74
2021/04/08 07:49:24;;;;;;;5.97;3.85;;;6.20;35.20;;;;;;5053134;28;20064;-73
2021/04/08 07:51:50;;;;;;;5.97;4.32;;;6.00;1.00;;;;;;5026925;28;20026;-74
2021/04/08 07:54:18;;;;;;;6.05;3.95;;;6.00;90.70;;;;;;5028964;28;20555;-74
2021/04/08 07:56:44;;;;;;;6.30;4.32;;;6.20;99.90;;;;;;5045610;28;20052;-74
2021/04/08 07:59:22;;;;;;;5.82;4.07;;;6.30;99.90;;;;;;5040225;28;20030;-74
2021/04/08 08:01:51;;;;;;;6.18;3.70;;;6.30;99.90;;;;;;5019833;28;20513;-74
2021/04/08 08:04:22;;;;;;;5.88;4.50;;;6.20;1.00;;;;;;5021937;28;20021;-75
2021/04/08 08:06:48;;;;;;;6.93;5.03;;;6.40;1.00;;;;;;5033638;28;20036;-73
2021/04/08 08:09:18;;;;;;;5.68;4.05;;;6.50;1.00;;;;;;5035336;28;20468;-74
2021/04/08 08:11:44;;;;;;;6.25;4.40;;;6.30;1.00;;;;;;5032824;28;20022;-74
2021/04/08 08:14:09;;;;;;;12.75;5.20;;;6.30;1.00;;;;;;5043818;28;20113;-75
2021/04/08 08:16:36;;;;;;;7.07;4.65;;;6.40;1.00;;;;;;5052242;28;20108;-74
2021/04/08 08:19:02;;;;;;;6.82;5.03;;;6.50;99.90;;;;;;5044405;28;20021;-74
2021/04/08 08:21:28;;;;;;;4.95;4.53;;;6.60;99.90;;;;;;5045847;28;20078;-74
2021/04/08 08:23:56;;;;;;;8.98;5.47;;;7.00;1.00;;;;;;5022132;28;20025;-74
2021/04/08 08:26:42;;;;;;;5.97;4.47;;;7.00;1.00;;;;;;5032271;28;20045;-74
2021/04/08 08:29:10;;;;;;;6.07;5.03;;;6.80;1.00;;;;;;5032325;28;20030;-72
2021/04/08 08:31:39;;;;;;;8.48;5.28;;;6.70;1.00;;;;;;5032690;28;20063;-74
2021/04/08 08:34:08;;;;;;;7.63;4.90;;;6.80;32.50;;;;;;5036638;28;20088;-74
2021/04/08 08:36:34;;;;;;;7.43;4.38;;;6.90;56.10;;;;;;5048230;28;20055;-74
2021/04/08 08:39:02;;;;;;;9.52;4.70;;;6.90;1.00;;;;;;5032209;28;20026;-74
2021/04/08 08:41:29;;;;;;;5.55;4.80;;;6.70;1.00;;;;;;5044646;28;20494;-74
2021/04/08 08:43:56;;;;;;;8.73;4.28;;;6.90;1.00;;;;;;5036257;28;20029;-75
2021/04/08 08:46:25;;;;;;;6.95;5.25;;;6.70;1.00;;;;;;5028871;28;20104;-75
2021/04/08 08:48:51;;;;;;;6.03;4.57;;;6.70;1.00;;;;;;5041704;28;20509;-73
2021/04/08 08:51:17;;;;;;;7.60;4.25;;;6.80;11.80;;;;;;5036981;28;20041;-74
2021/04/08 08:53:42;;;;;;;9.18;5.28;;;7.40;1.00;;;;;;5106074;22;20447;-74
2021/04/08 08:56:08;;;;;;;5.40;3.90;;;7.60;1.00;;;;;;5072488;28;20029;-74
2021/04/08 08:58:34;;;;;;;6.30;4.10;;;7.50;1.00;;;;;;5074342;28;20021;-73
2021/04/08 09:01:00;;;;;;;5.88;3.47;;;7.50;99.90;;;;;;5074584;28;20032;-74
2021/04/08 09:03:27;;;;;;;4.97;3.63;;;7.30;99.90;;;;;;5068049;28;20025;-75
2021/04/08 09:05:54;;;;;;;4.57;3.53;;;7.20;99.90;;;;;;5059908;28;20078;-74
2021/04/08 09:08:25;;;;;;;5.03;3.00;;;7.30;99.90;;;;;;5060001;28;20507;-74
2021/04/08 09:10:51;;;;;;;3.83;3.25;;;7.60;99.90;;;;;;5063273;28;20495;-74
2021/04/08 09:13:18;;;;;;;4.78;3.88;;;7.90;99.90;;;;;;5073153;28;20098;-75
2021/04/08 09:15:43;;;;;;;5.03;2.97;;;8.20;99.90;;;;;;5071879;28;20462;-75
2021/04/08 09:18:09;;;;;;;4.97;3.05;;;8.30;99.90;;;;;;5063673;28;20047;-73
2021/04/08 09:20:36;;;;;;;11.68;3.30;;;8.40;99.90;;;;;;5074236;28;20032;-73
2021/04/08 09:23:08;;;;;;;8.50;3.55;;;8.20;99.90;;;;;;5076723;28;20020;-73
2021/04/08 09:25:53;;;;;;;5.35;2.83;;;7.90;99.90;;;;;;5075834;28;20029;-74
2021/04/08 09:28:20;;;;;;;6.95;3.20;;;7.40;99.90;;;;;;5072123;28;20021;-73
2021/04/08 09:31:04;;;;;;;5.18;2.95;;;7.20;99.90;;;;;;5071810;28;20052;-74
2021/04/08 09:33:42;;;;;;;5.15;2.80;;;6.90;99.90;;;;;;5039078;28;20026;-75
2021/04/08 09:36:25;;;;;;;7.05;3.20;;;6.80;99.90;;;;;;5057513;28;20109;-75
2021/04/08 09:39:00;;;;;;;3.53;3.05;;;6.90;99.90;;;;;;5056570;28;20063;-73
2021/04/08 09:41:46;;;;;;;5.30;3.40;;;6.60;99.90;;;;;;5072922;28;20051;-75
2021/04/08 09:44:14;;;;;;;4.47;3.80;;;6.60;1.00;;;;;;5047623;28;20029;-75
2021/04/08 09:46:41;;;;;;;7.10;4.32;;;6.70;1.00;;;;;;5041170;28;20024;-74
2021/04/08 09:49:09;;;;;;;7.22;3.63;;;6.60;1.00;;;;;;5062612;28;20068;-73
2021/04/08 09:51:37;;;;;;;7.25;3.88;;;6.50;1.00;;;;;;5056555;28;20045;-76
2021/04/08 09:54:04;;;;;;;4.60;3.47;;;6.40;1.00;;;;;;5059158;28;20035;-74
2021/04/08 09:56:55;;;;;;;7.43;4.50;;;6.30;1.60;;;;;;5059047;28;20396;-75
2021/04/08 09:59:23;;;;;;;6.90;4.03;;;6.30;1.00;;;;;;5073380;28;20035;-75
2021/04/08 10:01:49;;;;;;;5.70;4.03;;;6.20;1.00;;;;;;5065358;28;20515;-73
2021/04/08 10:04:21;;;;;;;5.25;3.60;;;6.30;1.00;;;;;;5059021;28;20021;-74
2021/04/08 10:06:58;;;;;;;4.90;3.58;;;6.20;1.00;;;;;;5059390;28;20526;-75
2021/04/08 10:09:23;;;;;;;8.55;4.10;;;6.40;1.00;;;;;;5036840;28;20085;-74
2021/04/08 10:11:49;;;;;;;9.55;4.50;;;6.70;1.00;;;;;;5058677;28;20053;-75
2021/04/08 10:14:27;;;;;;;11.13;4.88;;;7.10;1.00;;;;;;5065737;28;20056;-73
2021/04/08 10:17:05;;;;;;;7.47;4.25;;;7.20;1.00;;;;;;5048936;28;20056;-74
2021/04/08 10:19:33;;;;;;;6.05;3.80;;;7.00;99.90;;;;;;5056652;28;20029;-73
2021/04/08 10:21:59;;;;;;;4.90;4.35;;;7.00;99.90;;;;;;5053781;28;20025;-73
2021/04/08 10:24:25;;;;;;;7.63;3.67;;;7.00;99.90;;;;;;5058857;28;20135;-75
2021/04/08 10:26:50;;;;;;;6.57;4.05;;;7.30;99.90;;;;;;5047282;28;20044;-75
2021/04/08 10:29:30;;;;;;;9.73;4.00;;;7.20;99.90;;;;;;5060543;28;20032;-73
2021/04/08 10:31:56;;;;;;;5.53;4.18;;;7.00;99.90;;;;;;5070204;28;20020;-73
2021/04/08 10:34:22;;;;;;;5.50;4.78;;;6.90;99.90;;;;;;5065118;28;20060;-73
2021/04/08 10:36:54;;;;;;;9.35;4.28;;;7.20;99.90;;;;;;5066809;28;20060;-75
2021/04/08 10:39:22;;;;;;;6.53;4.20;;;7.20;99.90;;;;;;5066763;28;20021;-74
2021/04/08 10:41:57;;;;;;;6.22;4.18;;;7.30;99.90;;;;;;5039880;28;20406;-73
2021/04/08 10:44:33;;;;;;;7.68;4.13;;;7.20;99.90;;;;;;5073006;28;20043;-74
2021/04/08 10:47:02;;;;;;;8.43;4.75;;;7.30;99.90;;;;;;5080268;28;20044;-74
2021/04/08 10:49:31;;;;;;;6.47;4.43;;;7.20;99.90;;;;;;5068708;28;20044;-73
2021/04/08 10:52:01;;;;;;;5.97;4.47;;;7.40;99.90;;;;;;5087410;28;20017;-75
2021/04/08 10:54:31;;;;;;;6.90;4.55;;;7.60;99.90;;;;;;5081244;28;20039;-74
2021/04/08 10:56:58;;;;;;;6.88;5.07;;;7.70;99.90;;;;;;5053758;28;20021;-73
2021/04/08 10:59:26;;;;;;;8.50;6.25;;;8.00;99.90;;;;;;5058300;28;20032;-73
2021/04/08 11:01:53;;;;;;;5.60;4.32;;;7.90;99.90;;;;;;5067351;28;20032;-73
2021/04/08 11:04:20;;;;;;;6.05;4.50;;;8.00;99.90;;;;;;5079267;28;20032;-72
2021/04/08 11:06:50;;;;;;;6.10;4.72;;;8.10;99.90;;;;;;5063903;28;20048;-74
2021/04/08 11:09:29;;;;;;;10.52;4.93;;;7.50;99.90;;;;;;5063264;28;20027;-73
2021/04/08 11:11:57;;;;;;;6.97;5.15;;;7.60;99.90;;;;;;5087268;28;20001;-73
2021/04/08 11:14:26;;;;;;;6.35;4.60;;;7.80;99.90;;;;;;5061628;28;20041;-72
2021/04/08 11:16:57;;;;;;;12.45;5.10;;;8.10;99.90;;;;;;5051887;28;20049;-72
2021/04/08 11:19:22;;;;;;;;;;;8.30;99.90;;;;;;5071087;28;20047;-74
2021/04/08 11:21:49;;;;;;;4.88;3.90;;;8.30;99.90;;;;;;5075124;28;19908;-73
2021/04/08 11:24:16;;;;;;;6.80;4.72;;;8.30;99.90;;;;;;5041311;28;20116;-72
2021/04/08 11:26:48;;;;;;;6.05;3.95;;;8.40;99.90;;;;;;5056089;28;20503;-73
2021/04/08 11:29:27;;;;;;;6.95;4.57;;;8.30;99.90;;;;;;5056935;28;20029;-73
2021/04/08 11:32:04;;;;;;;11.20;4.63;;;8.40;99.90;;;;;;5055767;28;20029;-73
2021/04/08 11:34:46;;;;;;;7.88;4.88;;;8.90;99.90;;;;;;5056376;28;20100;-73
2021/04/08 11:37:14;;;;;;;6.18;4.40;;;8.80;99.90;;;;;;5042802;28;20027;-73
2021/04/08 11:39:42;;;;;;;7.90;4.82;;;8.50;99.90;;;;;;5046555;28;20025;-72
2021/04/08 11:42:15;;;;;;;7.72;5.97;;;8.40;99.90;;;;;;5061034;28;20024;-72
2021/04/08 11:44:41;;;;;;;5.82;4.25;;;8.50;99.90;;;;;;5055574;28;20040;-71
2021/04/08 11:47:21;;;;;;;4.40;3.67;;;8.50;99.90;;;;;;5057242;28;20017;-73
2021/04/08 11:49:52;;;;;;;6.63;3.85;;;8.50;99.90;;;;;;5057793;28;20074;-72
2021/04/08 11:52:19;;;;;;;;;;;8.60;99.90;;;;;;5057063;28;20040;-73
2021/04/08 11:55:09;;;;;;;6.57;3.85;;;8.70;99.90;;;;;;5056528;28;19912;-72
2021/04/08 11:57:36;;;;;;;6.40;3.25;;;8.50;99.90;;;;;;5048448;28;20021;-73
2021/04/08 12:00:06;;;;;;;4.65;3.13;;;8.70;99.90;;;;;;5064376;28;20025;-72
2021/04/08 12:02:37;;;;;;;6.25;3.47;;;9.00;99.90;;;;;;5068469;28;20080;-73
2021/04/08 12:05:09;;;;;;;7.38;3.28;;;9.10;99.90;;;;;;5067109;28;20520;-74
2021/04/08 12:07:46;;;;;;;4.15;3.25;;;9.10;99.90;;;;;;5037846;28;20071;-73
2021/04/08 12:10:33;;;;;;;5.25;3.13;;;9.00;99.90;;;;;;5056262;28;20025;-72
2021/04/08 12:13:04;;;;;;;7.57;4.13;;;9.10;99.90;;;;;;5055418;28;20055;-73
2021/04/08 12:15:41;;;;;;;4.22;3.38;;;8.80;99.90;;;;;;5056294;28;20027;-73
2021/04/08 12:18:12;;;;;;;5.55;3.97;;;8.40;99.90;;;;;;5058937;28;20025;-72
2021/04/08 12:20:38;;;;;;;3.70;2.72;;;8.50;99.90;;;;;;5030894;28;20017;-72
2021/04/08 12:23:09;;;;;;;5.20;3.20;;;8.40;99.90;;;;;;5059897;28;20032;-72
2021/04/08 12:26:04;;;;;;;11.68;3.90;;;8.30;99.90;;;;;;5057765;28;20029;-73
2021/04/08 12:28:30;;;;;;;4.60;3.10;;;8.30;99.90;;;;;;5044440;28;20116;-72
2021/04/08 12:30:59;;;;;;;5.80;4.63;;;8.30;99.90;;;;;;5057844;28;20063;-72
2021/04/08 12:33:29;;;;;;;4.85;3.35;;;8.80;99.90;;;;;;5066950;28;20482;-73
2021/04/08 12:35:57;;;;;;;4.40;3.15;;;8.80;99.90;;;;;;5059101;28;20025;-72
2021/04/08 12:38:23;;;;;;;6.15;3.17;;;8.80;99.90;;;;;;5057148;28;20029;-72
2021/04/08 12:40:50;;;;;;;3.22;2.92;;;8.80;99.90;;;;;;5056839;28;20094;-73
2021/04/08 12:43:15;;;;;;;4.72;2.92;;;8.70;99.90;;;;;;5057815;28;20032;-72
2021/04/08 12:45:41;;;;;;;4.65;2.95;;;8.60;99.90;;;;;;5065518;28;20025;-71
2021/04/08 12:48:08;;;;;;;4.18;3.08;;;8.50;99.90;;;;;;5063598;28;20081;-73
2021/04/08 12:50:34;;;;;;;2.83;2.38;;;8.50;99.90;;;;;;5043992;28;20049;-73
2021/04/08 12:53:00;;;;;;;5.97;2.80;;;8.40;99.90;;;;;;5047244;28;20029;-73
2021/04/08 12:55:27;;;;;;;3.83;2.78;;;8.50;99.90;;;;;;5072130;28;20388;-73
2021/04/08 12:57:54;;;;;;;4.30;3.33;;;8.70;99.90;;;;;;5065924;28;20036;-73
2021/04/08 13:00:22;;;;;;;3.10;2.35;;;9.00;99.90;;;;;;5073954;28;20025;-73
2021/04/08 13:02:47;;;;;;;6.75;2.58;;;9.20;99.90;;;;;;5070896;28;20032;-75
2021/04/08 13:05:14;;;;;;;5.03;2.88;;;9.40;99.90;;;;;;5064943;28;20025;-73
2021/04/08 13:07:39;;;;;;;7.20;2.55;;;9.50;99.90;;;;;;5059505;28;20059;-71
2021/04/08 13:10:06;;;;;;;4.90;2.60;;;9.60;99.90;;;;;;5058056;28;20025;-72
2021/04/08 13:12:32;;;;;;;5.15;3.05;;;9.80;99.90;;;;;;5059336;28;20025;-74
2021/04/08 13:14:58;;;;;;;8.75;3.15;;;9.50;99.90;;;;;;5060832;28;20243;-72
2021/04/08 13:17:24;;;;;;;6.95;2.97;;;9.30;99.90;;;;;;5056247;28;20104;-73